createdAt,value
2019-05-19T00:01:01.682Z,15.63
2019-05-19T00:03:30.846Z,15.67
2019-05-19T00:05:59.754Z,15.76
2019-05-19T00:08:28.010Z,15.78
2019-05-19T00:10:57.059Z,15.75
2019-05-19T00:13:25.655Z,15.69
2019-05-19T00:15:54.752Z,15.63
2019-05-19T00:18:23.452Z,15.62
2019-05-19T00:20:52.416Z,15.58
2019-05-19T00:23:21.357Z,15.53
2019-05-19T00:25:50.385Z,15.59
2019-05-19T00:28:19.244Z,15.67
2019-05-19T00:30:48.043Z,15.70
2019-05-19T00:33:16.868Z,15.66
2019-05-19T00:35:45.751Z,15.60
2019-05-19T00:38:14.564Z,15.61
2019-05-19T00:40:43.083Z,15.60
2019-05-19T00:43:12.403Z,15.61
2019-05-19T00:45:41.425Z,15.57
2019-05-19T00:48:10.275Z,15.55
2019-05-19T00:50:39.104Z,15.52
2019-05-19T00:53:07.962Z,15.48
2019-05-19T00:55:36.470Z,15.47
2019-05-19T00:58:05.069Z,15.47
2019-05-19T01:00:33.429Z,15.49
2019-05-19T01:03:01.744Z,15.50
2019-05-19T01:05:30.036Z,15.57
2019-05-19T01:07:58.435Z,15.50
2019-05-19T01:10:26.713Z,15.55
2019-05-19T01:12:55.174Z,15.58
2019-05-19T01:15:23.559Z,15.52
2019-05-19T01:17:51.868Z,15.49
2019-05-19T01:20:20.229Z,15.55
2019-05-19T01:22:48.550Z,15.52
2019-05-19T01:25:17.917Z,15.41
2019-05-19T01:27:46.421Z,15.38
2019-05-19T01:30:15.016Z,15.40
2019-05-19T01:32:43.531Z,15.35
2019-05-19T01:35:11.894Z,15.37
2019-05-19T01:37:40.214Z,15.42
2019-05-19T01:40:09.764Z,15.42
2019-05-19T01:42:38.322Z,15.43
2019-05-19T01:45:07.285Z,15.45
2019-05-19T01:47:35.612Z,15.42
2019-05-19T01:50:17.557Z,15.41
2019-05-19T01:52:37.453Z,15.26
2019-05-19T01:55:07.319Z,15.13
2019-05-19T01:57:35.635Z,15.05
2019-05-19T02:00:08.577Z,13.74
2019-05-19T02:02:36.881Z,15.10
2019-05-19T02:05:06.823Z,15.10
2019-05-19T02:07:35.211Z,15.09
2019-05-19T02:10:05.530Z,15.11
2019-05-19T02:12:33.820Z,15.08
2019-05-19T02:15:03.011Z,15.01
2019-05-19T02:22:00.564Z,15.01
2019-05-19T02:25:02.426Z,14.97
2019-05-19T02:28:04.214Z,14.86
2019-05-19T02:31:03.208Z,14.90
2019-05-19T02:34:02.076Z,14.94
2019-05-19T02:41:03.120Z,14.91
2019-05-19T02:51:03.016Z,14.71
2019-05-19T02:54:01.938Z,14.80
2019-05-19T02:57:03.677Z,14.82
2019-05-19T03:00:03.173Z,14.77
2019-05-19T03:03:02.144Z,14.73
2019-05-19T03:06:04.355Z,14.68
2019-05-19T03:09:05.003Z,14.72
2019-05-19T03:12:04.211Z,14.64
2019-05-19T03:15:02.733Z,14.56
2019-05-19T03:18:01.504Z,14.54
2019-05-19T03:21:11.280Z,14.38
2019-05-19T03:24:03.687Z,14.24
2019-05-19T03:27:02.517Z,14.20
2019-05-19T03:33:14.148Z,14.22
2019-05-19T03:36:03.701Z,14.29
2019-05-19T03:39:02.058Z,14.41
2019-05-19T03:42:04.221Z,14.45
2019-05-19T03:45:02.769Z,14.46
2019-05-19T03:48:02.183Z,14.37
2019-05-19T03:51:03.839Z,14.38
2019-05-19T03:54:02.230Z,14.39
2019-05-19T03:57:04.092Z,14.45
2019-05-19T04:00:02.784Z,14.50
2019-05-19T04:03:01.461Z,14.45
2019-05-19T04:06:03.081Z,14.43
2019-05-19T04:09:01.621Z,14.47
2019-05-19T04:12:03.400Z,14.49
2019-05-19T04:15:02.252Z,14.52
2019-05-19T04:18:01.448Z,14.53
2019-05-19T04:21:03.190Z,14.60
2019-05-19T04:24:02.040Z,14.57
2019-05-19T04:27:04.056Z,14.46
2019-05-19T04:30:02.871Z,14.42
2019-05-19T04:33:01.313Z,14.52
2019-05-19T04:36:02.575Z,14.70
2019-05-19T04:39:06.491Z,14.84
2019-05-19T04:42:02.313Z,14.90
2019-05-19T04:44:30.632Z,14.94
2019-05-19T04:47:02.429Z,15.13
2019-05-19T04:50:01.159Z,15.26
2019-05-19T04:52:29.524Z,15.31
2019-05-19T04:54:57.881Z,15.47
2019-05-19T04:57:27.548Z,15.53
2019-05-19T04:59:55.842Z,15.61
2019-05-19T05:02:24.221Z,15.75
2019-05-19T05:04:52.735Z,15.81
2019-05-19T05:07:21.093Z,15.87
2019-05-19T05:09:49.419Z,16.00
2019-05-19T05:12:17.723Z,16.07
2019-05-19T05:14:46.131Z,16.09
2019-05-19T05:17:14.595Z,16.21
2019-05-19T05:19:42.942Z,16.32
2019-05-19T05:22:21.711Z,16.48
2019-05-19T05:24:41.936Z,16.62
2019-05-19T05:27:10.261Z,16.76
2019-05-19T05:29:38.576Z,16.86
2019-05-19T05:32:07.043Z,16.86
2019-05-19T05:34:35.463Z,17.00
2019-05-19T05:37:03.876Z,17.21
2019-05-19T05:39:32.595Z,17.22
2019-05-19T05:42:01.003Z,17.28
2019-05-19T05:44:29.371Z,17.40
2019-05-19T05:46:57.724Z,17.42
2019-05-19T05:49:26.104Z,17.47
2019-05-19T05:51:54.591Z,17.49
2019-05-19T05:54:22.972Z,17.45
2019-05-19T05:56:51.309Z,17.38
2019-05-19T05:59:19.618Z,17.33
2019-05-19T06:01:48.095Z,17.32
2019-05-19T06:04:16.391Z,17.33
2019-05-19T06:06:45.845Z,17.38
2019-05-19T06:09:14.282Z,17.40
2019-05-19T06:11:42.960Z,17.47
2019-05-19T06:14:11.275Z,17.51
2019-05-19T06:16:39.615Z,17.53
2019-05-19T06:19:08.078Z,17.61
2019-05-19T06:21:36.639Z,17.45
2019-05-19T06:24:04.959Z,17.59
2019-05-19T06:26:33.459Z,17.61
2019-05-19T06:29:01.760Z,17.65
2019-05-19T06:31:30.185Z,17.66
2019-05-19T06:35:02.333Z,17.68
2019-05-19T06:38:04.539Z,17.69
2019-05-19T06:41:03.554Z,17.61
2019-05-19T06:44:03.451Z,17.57
2019-05-19T06:47:02.050Z,17.55
2019-05-19T06:52:16.681Z,17.47
2019-05-19T06:55:04.033Z,17.48
2019-05-19T06:58:03.181Z,17.44
2019-05-19T07:01:01.837Z,17.45
2019-05-19T07:03:30.237Z,17.46
2019-05-19T07:06:04.566Z,17.53
2019-05-19T07:09:05.127Z,17.47
2019-05-19T07:12:04.147Z,17.51
2019-05-19T07:14:59.812Z,17.56
2019-05-19T07:18:01.139Z,17.60
2019-05-19T07:21:02.439Z,17.60
2019-05-19T07:24:00.664Z,17.62
2019-05-19T07:26:28.968Z,17.52
2019-05-19T07:29:03.172Z,17.49
2019-05-19T07:32:02.090Z,17.42
2019-05-19T07:35:04.714Z,17.39
2019-05-19T07:38:03.667Z,17.39
2019-05-19T07:41:02.353Z,17.37
2019-05-19T07:43:30.730Z,17.34
2019-05-19T07:46:02.290Z,17.34
2019-05-19T07:49:04.177Z,17.47
2019-05-19T07:54:18.821Z,17.58
2019-05-19T07:57:02.408Z,17.53
2019-05-19T08:00:06.083Z,17.49
2019-05-19T08:03:01.786Z,17.49
2019-05-19T08:06:04.026Z,17.57
2019-05-19T08:09:03.355Z,17.66
2019-05-19T08:11:32.002Z,17.63
2019-05-19T08:14:03.788Z,17.58
2019-05-19T08:17:02.550Z,17.57
2019-05-19T08:20:05.856Z,17.58
2019-05-19T08:23:01.691Z,17.62
2019-05-19T08:25:30.243Z,17.69
2019-05-19T08:28:08.810Z,17.73
2019-05-19T08:31:01.900Z,18.00
2019-05-19T08:36:16.873Z,18.46
2019-05-19T08:39:04.855Z,18.65
2019-05-19T08:42:03.481Z,18.88
2019-05-19T08:45:02.154Z,18.95
2019-05-19T08:48:04.249Z,19.00
2019-05-19T08:51:03.163Z,19.05
2019-05-19T08:54:13.895Z,19.26
2019-05-19T08:57:02.412Z,19.44
2019-05-19T09:00:05.780Z,19.59
2019-05-19T09:03:04.582Z,19.44
2019-05-19T09:06:03.371Z,19.53
2019-05-19T09:09:02.312Z,19.49
2019-05-19T09:12:01.321Z,19.73
2019-05-19T09:14:29.806Z,20.07
2019-05-19T09:17:04.105Z,20.43
2019-05-19T09:20:03.060Z,20.61
2019-05-19T09:23:02.103Z,20.75
2019-05-19T09:26:00.896Z,20.86
2019-05-19T09:28:29.342Z,20.95
2019-05-19T09:31:03.482Z,20.78
2019-05-19T09:33:31.838Z,20.77
2019-05-19T09:36:03.101Z,20.55
2019-05-19T09:38:31.621Z,20.35
2019-05-19T09:41:03.251Z,20.52
2019-05-19T09:43:31.674Z,20.70
2019-05-19T09:46:00.103Z,20.74
2019-05-19T09:49:19.756Z,20.73
2019-05-19T09:52:04.750Z,20.70
2019-05-19T09:55:00.119Z,20.85
2019-05-19T10:00:32.078Z,21.36
2019-05-19T10:03:02.466Z,21.41
2019-05-19T10:05:30.912Z,21.28
2019-05-19T10:07:59.499Z,21.26
2019-05-19T10:10:40.120Z,21.30
2019-05-19T10:13:08.480Z,21.38
2019-05-19T10:15:36.923Z,21.49
2019-05-19T10:18:05.576Z,21.39
2019-05-19T10:20:33.996Z,21.63
2019-05-19T10:23:02.355Z,21.83
2019-05-19T10:25:30.893Z,22.15
2019-05-19T10:27:59.315Z,22.21
2019-05-19T10:30:27.715Z,22.56
2019-05-19T10:32:58.722Z,22.80
2019-05-19T10:35:26.514Z,22.89
2019-05-19T10:37:55.285Z,22.98
2019-05-19T10:40:23.626Z,23.42
2019-05-19T10:42:52.765Z,23.71
2019-05-19T10:45:22.086Z,23.73
2019-05-19T10:47:50.458Z,23.89
2019-05-19T10:50:19.849Z,24.21
2019-05-19T10:52:48.326Z,24.37
2019-05-19T10:55:16.713Z,24.37
2019-05-19T10:57:46.640Z,24.25
2019-05-19T11:00:15.215Z,24.21
2019-05-19T11:02:43.725Z,24.54
2019-05-19T11:05:12.304Z,24.65
2019-05-19T11:07:41.659Z,24.57
2019-05-19T11:10:10.509Z,24.43
2019-05-19T11:12:38.869Z,24.64
2019-05-19T11:15:10.464Z,24.47
2019-05-19T11:17:40.390Z,24.56
2019-05-19T11:20:11.798Z,24.29
2019-05-19T11:22:42.178Z,24.00
2019-05-19T11:25:14.288Z,23.91
2019-05-19T11:27:43.321Z,23.91
2019-05-19T11:30:12.983Z,24.25
2019-05-19T11:32:41.565Z,24.38
2019-05-19T11:35:14.082Z,24.40
2019-05-19T11:37:44.748Z,24.19
2019-05-19T11:40:13.303Z,23.98
2019-05-19T11:42:46.773Z,23.87
2019-05-19T11:45:13.970Z,23.61
2019-05-19T11:48:03.443Z,23.50
2019-05-19T11:50:42.227Z,23.53
2019-05-19T11:53:10.559Z,23.70
2019-05-19T11:55:39.190Z,23.80
2019-05-19T11:58:07.612Z,23.80
2019-05-19T12:00:36.120Z,23.82
2019-05-19T12:03:04.452Z,23.54
2019-05-19T12:05:34.466Z,23.49
2019-05-19T12:08:03.614Z,23.44
2019-05-19T12:10:34.946Z,23.62
2019-05-19T12:13:03.721Z,23.97
2019-05-19T12:15:34.124Z,24.07
2019-05-19T12:18:06.279Z,23.80
2019-05-19T12:20:36.126Z,24.01
2019-05-19T12:23:04.719Z,24.38
2019-05-19T12:25:35.488Z,24.63
2019-05-19T12:28:04.390Z,24.65
2019-05-19T12:30:32.751Z,24.50
2019-05-19T12:33:01.359Z,24.48
2019-05-19T12:35:29.717Z,24.35
2019-05-19T12:37:58.941Z,24.12
2019-05-19T12:40:27.296Z,24.15
2019-05-19T12:42:56.132Z,24.57
2019-05-19T12:45:24.823Z,24.78
2019-05-19T12:47:54.182Z,25.06
2019-05-19T12:50:23.573Z,25.32
2019-05-19T12:52:55.060Z,25.69
2019-05-19T12:55:26.963Z,25.89
2019-05-19T12:57:55.545Z,26.19
2019-05-19T13:00:35.112Z,26.18
2019-05-19T13:03:03.575Z,25.62
2019-05-19T13:05:32.045Z,25.43
2019-05-19T13:08:00.694Z,25.29
2019-05-19T13:10:29.339Z,25.27
2019-05-19T13:12:59.213Z,25.41
2019-05-19T13:15:27.578Z,25.63
2019-05-19T13:17:57.700Z,25.88
2019-05-19T13:20:26.171Z,26.02
2019-05-19T13:22:54.491Z,26.32
2019-05-19T13:25:23.187Z,25.92
2019-05-19T13:27:51.979Z,25.82
2019-05-19T13:30:20.675Z,25.62
2019-05-19T13:32:49.338Z,25.28
2019-05-19T13:35:17.884Z,24.99
2019-05-19T13:39:57.172Z,24.60
2019-05-19T13:42:25.570Z,24.43
2019-05-19T13:44:54.048Z,24.34
2019-05-19T13:47:24.159Z,24.32
2019-05-19T13:49:52.877Z,24.37
2019-05-19T13:52:21.582Z,24.31
2019-05-19T13:54:50.147Z,24.07
2019-05-19T13:57:18.736Z,24.05
2019-05-19T13:59:47.549Z,24.05
2019-05-19T14:02:16.177Z,23.85
2019-05-19T14:04:46.143Z,23.80
2019-05-19T14:07:14.490Z,23.80
2019-05-19T14:09:42.794Z,23.74
2019-05-19T14:12:11.124Z,23.72
2019-05-19T14:14:40.834Z,23.79
2019-05-19T14:17:09.179Z,23.86
2019-05-19T14:19:37.488Z,23.75
2019-05-19T14:22:05.995Z,23.80
2019-05-19T14:24:34.383Z,23.88
2019-05-19T14:27:02.748Z,23.99
2019-05-19T14:29:31.035Z,24.07
2019-05-19T14:31:59.527Z,23.99
2019-05-19T14:34:28.002Z,23.99
2019-05-19T14:36:56.459Z,24.03
2019-05-19T14:39:24.948Z,24.01
2019-05-19T14:41:54.968Z,24.13
2019-05-19T14:44:23.379Z,24.08
2019-05-19T14:46:52.019Z,24.04
2019-05-19T14:49:20.514Z,24.06
2019-05-19T14:51:49.180Z,24.05
2019-05-19T14:54:17.589Z,23.98
2019-05-19T14:56:46.041Z,23.93
2019-05-19T14:59:14.619Z,24.06
2019-05-19T15:01:43.009Z,23.82
2019-05-19T15:09:01.903Z,23.88
2019-05-19T15:16:02.282Z,24.28
2019-05-19T15:19:01.543Z,24.43
2019-05-19T15:22:03.583Z,24.40
2019-05-19T15:24:32.325Z,24.62
2019-05-19T15:27:00.803Z,24.42
2019-05-19T15:29:29.205Z,24.67
2019-05-19T15:31:57.692Z,24.79
2019-05-19T15:34:26.125Z,24.87
2019-05-19T15:36:54.760Z,24.90
2019-05-19T15:39:23.071Z,24.98
2019-05-19T15:41:51.727Z,24.99
2019-05-19T15:44:20.110Z,25.04
2019-05-19T15:46:48.471Z,24.95
2019-05-19T15:49:16.892Z,25.00
2019-05-19T15:52:00.182Z,25.04
2019-05-19T15:54:15.543Z,24.88
2019-05-19T15:56:44.090Z,24.87
2019-05-19T15:59:13.812Z,24.77
2019-05-19T16:01:42.292Z,24.79
2019-05-19T16:04:10.721Z,24.72
2019-05-19T16:06:39.290Z,23.51
2019-05-19T16:09:08.366Z,21.94
2019-05-19T16:11:36.780Z,20.55
2019-05-19T16:14:05.587Z,19.13
2019-05-19T16:16:34.010Z,18.71
2019-05-19T16:19:02.476Z,18.46
2019-05-19T16:21:31.515Z,18.09
2019-05-19T16:23:59.931Z,18.09
2019-05-19T16:26:28.463Z,18.02
2019-05-19T16:28:57.019Z,18.11
2019-05-19T16:31:25.466Z,18.13
2019-05-19T16:33:53.799Z,18.23
2019-05-19T16:36:22.469Z,18.15
2019-05-19T16:38:52.352Z,18.10
2019-05-19T16:41:21.567Z,17.96
2019-05-19T16:43:53.265Z,17.13
2019-05-19T16:46:22.133Z,17.26
2019-05-19T16:49:03.012Z,17.37
2019-05-19T16:51:32.896Z,17.41
2019-05-19T16:54:07.472Z,17.37
2019-05-19T16:56:36.416Z,17.22
2019-05-19T16:59:05.955Z,17.16
2019-05-19T17:01:34.887Z,17.17
2019-05-19T17:04:04.191Z,17.13
2019-05-19T17:06:33.633Z,16.90
2019-05-19T17:09:02.707Z,17.04
2019-05-19T17:11:32.009Z,17.05
2019-05-19T17:14:00.717Z,17.20
2019-05-19T17:16:29.172Z,17.21
2019-05-19T17:18:58.109Z,17.19
2019-05-19T17:22:02.891Z,17.18
2019-05-19T17:24:31.792Z,17.11
2019-05-19T17:27:00.784Z,16.98
2019-05-19T17:29:30.182Z,17.13
2019-05-19T17:32:06.082Z,17.28
2019-05-19T17:34:29.835Z,17.28
2019-05-19T17:36:58.687Z,17.39
2019-05-19T17:39:27.629Z,17.43
2019-05-19T17:41:56.544Z,17.47
2019-05-19T17:44:26.952Z,17.60
2019-05-19T17:46:55.268Z,17.65
2019-05-19T17:49:23.727Z,17.74
2019-05-19T17:51:52.882Z,17.87
2019-05-19T17:54:22.455Z,17.95
2019-05-19T17:56:56.256Z,18.07
2019-05-19T17:59:25.983Z,18.15
2019-05-19T18:01:55.226Z,18.23
2019-05-19T18:04:24.242Z,18.29
2019-05-19T18:06:54.232Z,18.38
2019-05-19T18:09:23.311Z,18.27
2019-05-19T18:11:52.288Z,17.96
2019-05-19T18:14:20.852Z,17.62
2019-05-19T18:16:49.968Z,17.39
2019-05-19T18:19:19.012Z,17.27
2019-05-19T18:21:48.229Z,17.27
2019-05-19T18:24:16.762Z,17.24
2019-05-19T18:26:45.936Z,17.27
2019-05-19T18:29:15.198Z,17.38
2019-05-19T18:31:45.145Z,17.43
2019-05-19T18:34:14.465Z,17.52
2019-05-19T18:36:43.473Z,17.53
2019-05-19T18:39:12.637Z,17.55
2019-05-19T18:41:41.491Z,17.61
2019-05-19T18:44:10.624Z,17.71
2019-05-19T18:46:39.807Z,17.73
2019-05-19T18:49:08.557Z,17.69
2019-05-19T18:51:37.524Z,17.61
2019-05-19T18:54:06.415Z,17.53
2019-05-19T18:56:37.055Z,17.42
2019-05-19T18:59:06.008Z,17.33
2019-05-19T19:01:34.697Z,17.14
2019-05-19T19:04:03.904Z,17.17
2019-05-19T19:06:33.055Z,17.17
2019-05-19T19:09:02.428Z,17.12
2019-05-19T19:11:31.253Z,17.00
2019-05-19T19:14:00.338Z,16.92
2019-05-19T19:16:29.593Z,16.97
2019-05-19T19:18:58.774Z,17.08
2019-05-19T19:26:03.002Z,17.10
2019-05-19T19:29:03.847Z,17.13
2019-05-19T19:35:06.612Z,17.04
2019-05-19T19:38:02.712Z,16.99
2019-05-19T19:41:02.274Z,17.00
2019-05-19T19:44:04.765Z,17.04
2019-05-19T19:47:04.612Z,17.05
2019-05-19T19:50:05.189Z,16.82
2019-05-19T19:52:33.618Z,16.69
2019-05-19T19:55:02.187Z,16.40
2019-05-19T19:57:30.584Z,16.18
2019-05-19T19:59:59.083Z,16.02
2019-05-19T20:02:27.522Z,16.14
2019-05-19T20:04:55.811Z,16.21
2019-05-19T20:07:24.192Z,16.25
2019-05-19T20:09:52.633Z,16.31
2019-05-19T20:12:20.931Z,16.35
2019-05-19T20:14:49.312Z,16.31
2019-05-19T20:17:17.818Z,16.35
2019-05-19T20:19:46.170Z,16.02
2019-05-19T20:22:14.493Z,16.61
2019-05-19T20:24:42.991Z,16.71
2019-05-19T20:27:11.421Z,16.80
2019-05-19T20:29:39.763Z,16.87
2019-05-19T20:32:08.402Z,16.80
2019-05-19T20:34:36.752Z,16.69
2019-05-19T20:37:05.055Z,16.50
2019-05-19T20:39:33.462Z,16.33
2019-05-19T20:42:01.891Z,16.28
2019-05-19T20:44:30.659Z,16.27
2019-05-19T20:46:59.061Z,16.13
2019-05-19T20:49:27.440Z,16.02
2019-05-19T20:51:55.937Z,15.88
2019-05-19T20:54:24.307Z,15.78
2019-05-19T20:56:52.588Z,15.74
2019-05-19T20:59:20.952Z,15.75
2019-05-19T21:01:49.360Z,15.75
2019-05-19T21:04:17.645Z,15.74
2019-05-19T21:06:46.277Z,15.73
2019-05-19T21:09:14.574Z,15.86
2019-05-19T21:11:42.915Z,15.95
2019-05-19T21:14:11.434Z,15.99
2019-05-19T21:16:39.926Z,15.98
2019-05-19T21:19:08.418Z,15.89
